sensor_id;sensor_type;location;lat;lon;timestamp;P1;durP1;ratioP1;P2;durP2;ratioP2
67595;SDS011;54410;48.694;8.934;2023-07-22T00:01:20;4.05;;;3.60;;
67595;SDS011;54410;48.694;8.934;2023-07-22T00:03:47;4.10;;;3.70;;
67595;SDS011;54410;48.694;8.934;2023-07-22T00:06:12;4.20;;;3.80;;
67595;SDS011;54410;48.694;8.934;2023-07-22T00:08:38;5.05;;;4.18;;
67595;SDS011;54410;48.694;8.934;2023-07-22T00:11:05;4.00;;;3.70;;
67595;SDS011;54410;48.694;8.934;2023-07-22T00:13:31;3.97;;;3.67;;
67595;SDS011;54410;48.694;8.934;2023-07-22T00:15:57;3.70;;;3.25;;
67595;SDS011;54410;48.694;8.934;2023-07-22T00:18:24;4.35;;;3.95;;
67595;SDS011;54410;48.694;8.934;2023-07-22T00:20:52;4.00;;;3.63;;
67595;SDS011;54410;48.694;8.934;2023-07-22T00:23:17;5.20;;;3.83;;
67595;SDS011;54410;48.694;8.934;2023-07-22T00:25:44;6.38;;;4.35;;
67595;SDS011;54410;48.694;8.934;2023-07-22T00:28:10;4.18;;;3.67;;
67595;SDS011;54410;48.694;8.934;2023-07-22T00:30:36;4.05;;;3.75;;
67595;SDS011;54410;48.694;8.934;2023-07-22T00:33:02;4.38;;;3.97;;
67595;SDS011;54410;48.694;8.934;2023-07-22T00:35:27;4.95;;;4.00;;
67595;SDS011;54410;48.694;8.934;2023-07-22T00:37:53;4.00;;;3.70;;
67595;SDS011;54410;48.694;8.934;2023-07-22T00:40:19;4.45;;;3.95;;
67595;SDS011;54410;48.694;8.934;2023-07-22T00:42:45;4.32;;;3.95;;
67595;SDS011;54410;48.694;8.934;2023-07-22T00:45:11;4.28;;;3.88;;
67595;SDS011;54410;48.694;8.934;2023-07-22T00:47:37;4.40;;;4.00;;
67595;SDS011;54410;48.694;8.934;2023-07-22T00:50:04;4.72;;;4.32;;
67595;SDS011;54410;48.694;8.934;2023-07-22T00:52:33;4.85;;;3.85;;
67595;SDS011;54410;48.694;8.934;2023-07-22T00:54:59;5.75;;;4.47;;
67595;SDS011;54410;48.694;8.934;2023-07-22T00:57:25;4.63;;;4.10;;
67595;SDS011;54410;48.694;8.934;2023-07-22T00:59:51;4.38;;;3.97;;
67595;SDS011;54410;48.694;8.934;2023-07-22T01:02:18;4.68;;;4.28;;
67595;SDS011;54410;48.694;8.934;2023-07-22T01:04:44;4.70;;;4.30;;
67595;SDS011;54410;48.694;8.934;2023-07-22T01:07:10;5.82;;;4.38;;
67595;SDS011;54410;48.694;8.934;2023-07-22T01:09:36;4.22;;;3.92;;
67595;SDS011;54410;48.694;8.934;2023-07-22T01:12:03;6.18;;;4.30;;
67595;SDS011;54410;48.694;8.934;2023-07-22T01:14:31;4.32;;;3.92;;
67595;SDS011;54410;48.694;8.934;2023-07-22T01:17:01;4.68;;;4.10;;
67595;SDS011;54410;48.694;8.934;2023-07-22T01:19:28;4.50;;;4.10;;
67595;SDS011;54410;48.694;8.934;2023-07-22T01:21:55;7.50;;;4.38;;
67595;SDS011;54410;48.694;8.934;2023-07-22T01:24:25;4.35;;;3.95;;
67595;SDS011;54410;48.694;8.934;2023-07-22T01:26:51;4.53;;;4.10;;
67595;SDS011;54410;48.694;8.934;2023-07-22T01:29:25;4.75;;;4.22;;
67595;SDS011;54410;48.694;8.934;2023-07-22T01:31:51;4.70;;;4.20;;
67595;SDS011;54410;48.694;8.934;2023-07-22T01:34:18;4.63;;;4.07;;
67595;SDS011;54410;48.694;8.934;2023-07-22T01:36:45;4.80;;;4.40;;
67595;SDS011;54410;48.694;8.934;2023-07-22T01:39:12;6.32;;;4.28;;
67595;SDS011;54410;48.694;8.934;2023-07-22T01:41:38;5.22;;;4.72;;
67595;SDS011;54410;48.694;8.934;2023-07-22T01:44:04;4.18;;;3.78;;
67595;SDS011;54410;48.694;8.934;2023-07-22T01:46:30;4.50;;;4.10;;
67595;SDS011;54410;48.694;8.934;2023-07-22T01:48:56;4.15;;;3.83;;
67595;SDS011;54410;48.694;8.934;2023-07-22T01:51:21;4.85;;;4.25;;
67595;SDS011;54410;48.694;8.934;2023-07-22T01:53:47;5.15;;;4.50;;
67595;SDS011;54410;48.694;8.934;2023-07-22T01:56:14;5.43;;;4.35;;
67595;SDS011;54410;48.694;8.934;2023-07-22T01:58:41;5.13;;;4.63;;
67595;SDS011;54410;48.694;8.934;2023-07-22T02:01:07;4.40;;;4.00;;
67595;SDS011;54410;48.694;8.934;2023-07-22T02:03:33;4.93;;;4.45;;
67595;SDS011;54410;48.694;8.934;2023-07-22T02:06:02;5.45;;;4.95;;
67595;SDS011;54410;48.694;8.934;2023-07-22T02:08:28;6.30;;;4.10;;
67595;SDS011;54410;48.694;8.934;2023-07-22T02:10:54;4.90;;;4.40;;
67595;SDS011;54410;48.694;8.934;2023-07-22T02:13:20;6.40;;;4.35;;
67595;SDS011;54410;48.694;8.934;2023-07-22T02:15:46;5.55;;;4.55;;
67595;SDS011;54410;48.694;8.934;2023-07-22T02:18:12;4.75;;;4.35;;
67595;SDS011;54410;48.694;8.934;2023-07-22T02:20:38;8.70;;;5.22;;
67595;SDS011;54410;48.694;8.934;2023-07-22T02:23:07;4.65;;;4.25;;
67595;SDS011;54410;48.694;8.934;2023-07-22T02:25:34;4.90;;;4.50;;
67595;SDS011;54410;48.694;8.934;2023-07-22T02:28:01;4.75;;;4.35;;
67595;SDS011;54410;48.694;8.934;2023-07-22T02:30:26;5.38;;;4.88;;
67595;SDS011;54410;48.694;8.934;2023-07-22T02:32:52;5.90;;;4.93;;
67595;SDS011;54410;48.694;8.934;2023-07-22T02:35:18;4.97;;;4.50;;
67595;SDS011;54410;48.694;8.934;2023-07-22T02:37:44;9.43;;;5.45;;
67595;SDS011;54410;48.694;8.934;2023-07-22T02:40:10;5.15;;;4.65;;
67595;SDS011;54410;48.694;8.934;2023-07-22T02:42:36;6.47;;;4.70;;
67595;SDS011;54410;48.694;8.934;2023-07-22T02:45:02;4.53;;;4.10;;
67595;SDS011;54410;48.694;8.934;2023-07-22T02:47:29;5.38;;;4.50;;
67595;SDS011;54410;48.694;8.934;2023-07-22T02:49:55;7.20;;;4.80;;
67595;SDS011;54410;48.694;8.934;2023-07-22T02:52:21;4.80;;;4.15;;
67595;SDS011;54410;48.694;8.934;2023-07-22T02:57:31;5.22;;;4.50;;
67595;SDS011;54410;48.694;8.934;2023-07-22T02:59:57;5.60;;;4.38;;
67595;SDS011;54410;48.694;8.934;2023-07-22T03:02:23;5.68;;;5.05;;
67595;SDS011;54410;48.694;8.934;2023-07-22T03:04:49;4.32;;;4.03;;
67595;SDS011;54410;48.694;8.934;2023-07-22T03:07:15;6.22;;;5.22;;
67595;SDS011;54410;48.694;8.934;2023-07-22T03:09:41;7.40;;;4.65;;
67595;SDS011;54410;48.694;8.934;2023-07-22T03:12:08;5.10;;;4.57;;
67595;SDS011;54410;48.694;8.934;2023-07-22T03:14:34;5.35;;;4.85;;
67595;SDS011;54410;48.694;8.934;2023-07-22T03:17:02;6.15;;;5.00;;
67595;SDS011;54410;48.694;8.934;2023-07-22T03:19:28;5.38;;;4.53;;
67595;SDS011;54410;48.694;8.934;2023-07-22T03:21:54;6.03;;;4.28;;
67595;SDS011;54410;48.694;8.934;2023-07-22T03:24:20;10.85;;;4.75;;
67595;SDS011;54410;48.694;8.934;2023-07-22T03:26:46;4.60;;;4.20;;
67595;SDS011;54410;48.694;8.934;2023-07-22T03:29:12;5.40;;;4.82;;
67595;SDS011;54410;48.694;8.934;2023-07-22T03:31:38;6.25;;;4.32;;
67595;SDS011;54410;48.694;8.934;2023-07-22T03:34:04;5.60;;;5.10;;
67595;SDS011;54410;48.694;8.934;2023-07-22T03:36:30;5.82;;;4.32;;
67595;SDS011;54410;48.694;8.934;2023-07-22T03:38:59;6.07;;;5.20;;
67595;SDS011;54410;48.694;8.934;2023-07-22T03:41:25;4.47;;;4.10;;
67595;SDS011;54410;48.694;8.934;2023-07-22T03:43:51;5.38;;;4.72;;
67595;SDS011;54410;48.694;8.934;2023-07-22T03:46:17;4.88;;;4.30;;
67595;SDS011;54410;48.694;8.934;2023-07-22T03:48:43;5.10;;;4.60;;
67595;SDS011;54410;48.694;8.934;2023-07-22T03:51:08;5.97;;;4.22;;
67595;SDS011;54410;48.694;8.934;2023-07-22T03:53:34;6.10;;;5.22;;
67595;SDS011;54410;48.694;8.934;2023-07-22T03:56:00;5.18;;;4.28;;
67595;SDS011;54410;48.694;8.934;2023-07-22T03:58:26;7.22;;;5.18;;
67595;SDS011;54410;48.694;8.934;2023-07-22T04:00:52;5.00;;;4.53;;
67595;SDS011;54410;48.694;8.934;2023-07-22T04:03:18;5.00;;;4.60;;
67595;SDS011;54410;48.694;8.934;2023-07-22T04:05:44;4.75;;;4.35;;
67595;SDS011;54410;48.694;8.934;2023-07-22T04:08:10;5.15;;;4.53;;
67595;SDS011;54410;48.694;8.934;2023-07-22T04:10:36;4.68;;;4.28;;
67595;SDS011;54410;48.694;8.934;2023-07-22T04:13:02;5.63;;;5.13;;
67595;SDS011;54410;48.694;8.934;2023-07-22T04:15:29;4.88;;;4.47;;
67595;SDS011;54410;48.694;8.934;2023-07-22T04:17:55;4.90;;;4.40;;
67595;SDS011;54410;48.694;8.934;2023-07-22T04:20:21;4.40;;;4.00;;
67595;SDS011;54410;48.694;8.934;2023-07-22T04:22:49;5.05;;;4.55;;
67595;SDS011;54410;48.694;8.934;2023-07-22T04:25:15;7.38;;;4.35;;
67595;SDS011;54410;48.694;8.934;2023-07-22T04:27:41;5.68;;;4.47;;
67595;SDS011;54410;48.694;8.934;2023-07-22T04:30:07;3.63;;;3.33;;
67595;SDS011;54410;48.694;8.934;2023-07-22T04:32:33;4.22;;;3.90;;
67595;SDS011;54410;48.694;8.934;2023-07-22T04:34:59;6.45;;;4.07;;
67595;SDS011;54410;48.694;8.934;2023-07-22T04:37:25;4.88;;;3.90;;
67595;SDS011;54410;48.694;8.934;2023-07-22T04:39:52;4.00;;;3.47;;
67595;SDS011;54410;48.694;8.934;2023-07-22T04:42:19;5.03;;;4.00;;
67595;SDS011;54410;48.694;8.934;2023-07-22T04:44:45;4.82;;;3.47;;
67595;SDS011;54410;48.694;8.934;2023-07-22T04:47:11;4.53;;;3.45;;
67595;SDS011;54410;48.694;8.934;2023-07-22T04:49:37;4.80;;;3.65;;
67595;SDS011;54410;48.694;8.934;2023-07-22T04:52:04;3.15;;;2.85;;
67595;SDS011;54410;48.694;8.934;2023-07-22T04:54:30;3.40;;;3.10;;
67595;SDS011;54410;48.694;8.934;2023-07-22T04:56:55;3.40;;;2.90;;
67595;SDS011;54410;48.694;8.934;2023-07-22T04:59:21;3.13;;;2.83;;
67595;SDS011;54410;48.694;8.934;2023-07-22T05:01:47;3.28;;;2.60;;
67595;SDS011;54410;48.694;8.934;2023-07-22T05:04:13;3.15;;;2.88;;
67595;SDS011;54410;48.694;8.934;2023-07-22T05:06:39;7.00;;;6.60;;
67595;SDS011;54410;48.694;8.934;2023-07-22T05:09:05;77.35;;;70.85;;
67595;SDS011;54410;48.694;8.934;2023-07-22T05:11:31;146.80;;;135.77;;
67595;SDS011;54410;48.694;8.934;2023-07-22T05:13:57;252.20;;;236.00;;
67595;SDS011;54410;48.694;8.934;2023-07-22T05:16:22;67.57;;;63.55;;
67595;SDS011;54410;48.694;8.934;2023-07-22T05:18:48;18.90;;;17.88;;
67595;SDS011;54410;48.694;8.934;2023-07-22T05:21:14;6.25;;;4.25;;
67595;SDS011;54410;48.694;8.934;2023-07-22T05:23:40;3.63;;;3.33;;
67595;SDS011;54410;48.694;8.934;2023-07-22T05:26:06;2.97;;;2.72;;
67595;SDS011;54410;48.694;8.934;2023-07-22T05:28:32;3.13;;;2.67;;
67595;SDS011;54410;48.694;8.934;2023-07-22T05:30:59;2.83;;;2.60;;
67595;SDS011;54410;48.694;8.934;2023-07-22T05:33:25;2.97;;;2.78;;
67595;SDS011;54410;48.694;8.934;2023-07-22T05:35:51;2.88;;;2.67;;
67595;SDS011;54410;48.694;8.934;2023-07-22T05:38:17;2.70;;;2.50;;
67595;SDS011;54410;48.694;8.934;2023-07-22T05:40:43;2.80;;;2.60;;
67595;SDS011;54410;48.694;8.934;2023-07-22T05:43:08;2.33;;;2.10;;
67595;SDS011;54410;48.694;8.934;2023-07-22T05:45:34;2.00;;;1.90;;
67595;SDS011;54410;48.694;8.934;2023-07-22T05:48:00;1.85;;;1.75;;
67595;SDS011;54410;48.694;8.934;2023-07-22T05:50:25;2.40;;;1.90;;
67595;SDS011;54410;48.694;8.934;2023-07-22T05:52:51;3.35;;;2.30;;
67595;SDS011;54410;48.694;8.934;2023-07-22T05:55:17;2.20;;;2.10;;
67595;SDS011;54410;48.694;8.934;2023-07-22T05:57:42;3.25;;;2.03;;
67595;SDS011;54410;48.694;8.934;2023-07-22T06:00:08;2.35;;;2.10;;
67595;SDS011;54410;48.694;8.934;2023-07-22T06:02:34;2.13;;;1.92;;
67595;SDS011;54410;48.694;8.934;2023-07-22T06:05:00;2.08;;;1.88;;
67595;SDS011;54410;48.694;8.934;2023-07-22T06:07:26;2.03;;;1.83;;
67595;SDS011;54410;48.694;8.934;2023-07-22T06:09:52;1.70;;;1.60;;
67595;SDS011;54410;48.694;8.934;2023-07-22T06:12:17;1.70;;;1.60;;
67595;SDS011;54410;48.694;8.934;2023-07-22T06:14:43;2.20;;;2.00;;
67595;SDS011;54410;48.694;8.934;2023-07-22T06:17:09;1.90;;;1.67;;
67595;SDS011;54410;48.694;8.934;2023-07-22T06:19:34;1.80;;;1.70;;
67595;SDS011;54410;48.694;8.934;2023-07-22T06:22:00;2.13;;;1.70;;
67595;SDS011;54410;48.694;8.934;2023-07-22T06:24:25;1.90;;;1.80;;
67595;SDS011;54410;48.694;8.934;2023-07-22T06:26:51;2.03;;;1.83;;
67595;SDS011;54410;48.694;8.934;2023-07-22T06:29:17;2.85;;;1.67;;
67595;SDS011;54410;48.694;8.934;2023-07-22T06:31:43;6.60;;;1.75;;
67595;SDS011;54410;48.694;8.934;2023-07-22T06:34:08;2.47;;;1.90;;
67595;SDS011;54410;48.694;8.934;2023-07-22T06:36:34;1.75;;;1.65;;
67595;SDS011;54410;48.694;8.934;2023-07-22T06:39:00;1.67;;;1.58;;
67595;SDS011;54410;48.694;8.934;2023-07-22T06:41:25;1.60;;;1.50;;
67595;SDS011;54410;48.694;8.934;2023-07-22T06:43:51;2.13;;;1.70;;
67595;SDS011;54410;48.694;8.934;2023-07-22T06:46:17;4.28;;;2.60;;
67595;SDS011;54410;48.694;8.934;2023-07-22T06:48:44;2.05;;;1.70;;
67595;SDS011;54410;48.694;8.934;2023-07-22T06:51:10;1.60;;;1.50;;
67595;SDS011;54410;48.694;8.934;2023-07-22T06:53:35;2.50;;;1.45;;
67595;SDS011;54410;48.694;8.934;2023-07-22T06:56:01;2.10;;;1.90;;
67595;SDS011;54410;48.694;8.934;2023-07-22T06:58:27;3.05;;;1.88;;
67595;SDS011;54410;48.694;8.934;2023-07-22T07:00:53;2.85;;;1.80;;
67595;SDS011;54410;48.694;8.934;2023-07-22T07:03:20;1.80;;;1.67;;
67595;SDS011;54410;48.694;8.934;2023-07-22T07:05:51;1.70;;;1.60;;
67595;SDS011;54410;48.694;8.934;2023-07-22T07:08:17;1.63;;;1.52;;
67595;SDS011;54410;48.694;8.934;2023-07-22T07:10:44;4.47;;;2.00;;
67595;SDS011;54410;48.694;8.934;2023-07-22T07:13:09;2.25;;;1.95;;
67595;SDS011;54410;48.694;8.934;2023-07-22T07:15:35;2.15;;;1.90;;
67595;SDS011;54410;48.694;8.934;2023-07-22T07:18:00;1.95;;;1.85;;
67595;SDS011;54410;48.694;8.934;2023-07-22T07:20:26;3.00;;;2.05;;
67595;SDS011;54410;48.694;8.934;2023-07-22T07:22:52;3.63;;;1.70;;
67595;SDS011;54410;48.694;8.934;2023-07-22T07:25:18;1.65;;;1.55;;
67595;SDS011;54410;48.694;8.934;2023-07-22T07:27:44;2.58;;;1.85;;
67595;SDS011;54410;48.694;8.934;2023-07-22T07:30:10;1.85;;;1.45;;
67595;SDS011;54410;48.694;8.934;2023-07-22T07:32:36;1.52;;;1.42;;
67595;SDS011;54410;48.694;8.934;2023-07-22T07:35:01;1.42;;;1.33;;
67595;SDS011;54410;48.694;8.934;2023-07-22T07:37:29;2.30;;;1.63;;
67595;SDS011;54410;48.694;8.934;2023-07-22T07:39:55;1.80;;;1.63;;
67595;SDS011;54410;48.694;8.934;2023-07-22T07:42:24;1.88;;;1.58;;
67595;SDS011;54410;48.694;8.934;2023-07-22T07:44:50;2.70;;;1.58;;
67595;SDS011;54410;48.694;8.934;2023-07-22T07:47:16;1.50;;;1.40;;
67595;SDS011;54410;48.694;8.934;2023-07-22T07:49:42;1.50;;;1.40;;
67595;SDS011;54410;48.694;8.934;2023-07-22T07:52:07;1.85;;;1.30;;
67595;SDS011;54410;48.694;8.934;2023-07-22T07:54:33;2.95;;;1.40;;
67595;SDS011;54410;48.694;8.934;2023-07-22T07:56:59;1.50;;;1.40;;
67595;SDS011;54410;48.694;8.934;2023-07-22T07:59:24;1.50;;;1.33;;
67595;SDS011;54410;48.694;8.934;2023-07-22T08:01:51;2.38;;;1.80;;
67595;SDS011;54410;48.694;8.934;2023-07-22T08:04:16;1.65;;;1.55;;
67595;SDS011;54410;48.694;8.934;2023-07-22T08:06:42;2.20;;;1.52;;
67595;SDS011;54410;48.694;8.934;2023-07-22T08:09:08;1.55;;;1.20;;
67595;SDS011;54410;48.694;8.934;2023-07-22T08:11:36;1.30;;;1.20;;
67595;SDS011;54410;48.694;8.934;2023-07-22T08:14:02;2.22;;;2.03;;
67595;SDS011;54410;48.694;8.934;2023-07-22T08:16:28;1.55;;;1.45;;
67595;SDS011;54410;48.694;8.934;2023-07-22T08:18:54;2.03;;;1.30;;
67595;SDS011;54410;48.694;8.934;2023-07-22T08:21:20;3.17;;;1.40;;
67595;SDS011;54410;48.694;8.934;2023-07-22T08:23:46;1.08;;;1.00;;
67595;SDS011;54410;48.694;8.934;2023-07-22T08:26:12;1.98;;;1.25;;
67595;SDS011;54410;48.694;8.934;2023-07-22T08:28:38;1.40;;;1.25;;
67595;SDS011;54410;48.694;8.934;2023-07-22T08:31:04;8.07;;;1.20;;
67595;SDS011;54410;48.694;8.934;2023-07-22T08:33:30;9.50;;;8.60;;
67595;SDS011;54410;48.694;8.934;2023-07-22T08:35:56;1.98;;;1.80;;
67595;SDS011;54410;48.694;8.934;2023-07-22T08:38:22;1.23;;;1.13;;
67595;SDS011;54410;48.694;8.934;2023-07-22T08:40:51;1.67;;;1.20;;
67595;SDS011;54410;48.694;8.934;2023-07-22T08:45:45;1.35;;;1.20;;
67595;SDS011;54410;48.694;8.934;2023-07-22T08:48:12;1.88;;;1.50;;
67595;SDS011;54410;48.694;8.934;2023-07-22T08:50:49;2.13;;;1.50;;
67595;SDS011;54410;48.694;8.934;2023-07-22T08:53:46;1.70;;;1.60;;
67595;SDS011;54410;48.694;8.934;2023-07-22T08:56:12;1.70;;;1.60;;
67595;SDS011;54410;48.694;8.934;2023-07-22T08:58:38;6.20;;;2.13;;
67595;SDS011;54410;48.694;8.934;2023-07-22T09:01:05;1.83;;;1.67;;
67595;SDS011;54410;48.694;8.934;2023-07-22T09:03:31;1.83;;;1.70;;
67595;SDS011;54410;48.694;8.934;2023-07-22T09:05:58;3.05;;;1.85;;
67595;SDS011;54410;48.694;8.934;2023-07-22T09:08:23;2.20;;;2.03;;
67595;SDS011;54410;48.694;8.934;2023-07-22T09:10:49;1.90;;;1.80;;
67595;SDS011;54410;48.694;8.934;2023-07-22T09:13:15;2.75;;;2.10;;
67595;SDS011;54410;48.694;8.934;2023-07-22T09:15:44;1.55;;;1.45;;
67595;SDS011;54410;48.694;8.934;2023-07-22T09:18:13;2.10;;;1.90;;
67595;SDS011;54410;48.694;8.934;2023-07-22T09:20:40;3.40;;;1.63;;
67595;SDS011;54410;48.694;8.934;2023-07-22T09:23:06;1.77;;;1.67;;
67595;SDS011;54410;48.694;8.934;2023-07-22T09:25:32;1.67;;;1.58;;
67595;SDS011;54410;48.694;8.934;2023-07-22T09:27:59;1.77;;;1.67;;
67595;SDS011;54410;48.694;8.934;2023-07-22T09:32:52;2.30;;;1.48;;
67595;SDS011;54410;48.694;8.934;2023-07-22T09:35:19;2.83;;;1.42;;
67595;SDS011;54410;48.694;8.934;2023-07-22T09:37:45;2.00;;;1.85;;
67595;SDS011;54410;48.694;8.934;2023-07-22T09:40:15;1.73;;;1.60;;
67595;SDS011;54410;48.694;8.934;2023-07-22T09:42:48;1.80;;;1.48;;
67595;SDS011;54410;48.694;8.934;2023-07-22T09:45:14;1.73;;;1.60;;
67595;SDS011;54410;48.694;8.934;2023-07-22T09:47:45;2.80;;;1.60;;
67595;SDS011;54410;48.694;8.934;2023-07-22T09:50:15;1.60;;;1.50;;
67595;SDS011;54410;48.694;8.934;2023-07-22T09:52:49;1.67;;;1.58;;
67595;SDS011;54410;48.694;8.934;2023-07-22T09:55:17;1.75;;;1.40;;
67595;SDS011;54410;48.694;8.934;2023-07-22T09:57:51;1.95;;;1.73;;
67595;SDS011;54410;48.694;8.934;2023-07-22T10:00:18;3.15;;;1.70;;
67595;SDS011;54410;48.694;8.934;2023-07-22T10:02:45;1.70;;;1.60;;
67595;SDS011;54410;48.694;8.934;2023-07-22T10:05:16;1.50;;;1.40;;
67595;SDS011;54410;48.694;8.934;2023-07-22T10:07:47;2.08;;;1.88;;
67595;SDS011;54410;48.694;8.934;2023-07-22T10:10:27;2.00;;;1.90;;
67595;SDS011;54410;48.694;8.934;2023-07-22T10:12:56;1.77;;;1.67;;
67595;SDS011;54410;48.694;8.934;2023-07-22T10:15:23;2.35;;;1.67;;
67595;SDS011;54410;48.694;8.934;2023-07-22T10:17:50;3.08;;;2.50;;
67595;SDS011;54410;48.694;8.934;2023-07-22T10:20:16;1.83;;;1.73;;
67595;SDS011;54410;48.694;8.934;2023-07-22T10:22:45;2.00;;;1.90;;
67595;SDS011;54410;48.694;8.934;2023-07-22T10:25:12;1.50;;;1.40;;
67595;SDS011;54410;48.694;8.934;2023-07-22T10:27:39;1.67;;;1.58;;
67595;SDS011;54410;48.694;8.934;2023-07-22T10:30:07;1.70;;;1.60;;
67595;SDS011;54410;48.694;8.934;2023-07-22T10:32:37;1.42;;;1.33;;
67595;SDS011;54410;48.694;8.934;2023-07-22T10:35:04;1.75;;;1.65;;
67595;SDS011;54410;48.694;8.934;2023-07-22T10:37:35;1.70;;;1.60;;
67595;SDS011;54410;48.694;8.934;2023-07-22T10:40:15;1.90;;;1.55;;
67595;SDS011;54410;48.694;8.934;2023-07-22T10:42:57;1.65;;;1.55;;
67595;SDS011;54410;48.694;8.934;2023-07-22T10:45:25;3.20;;;1.60;;
67595;SDS011;54410;48.694;8.934;2023-07-22T10:48:00;1.50;;;1.40;;
67595;SDS011;54410;48.694;8.934;2023-07-22T10:50:37;1.70;;;1.60;;
67595;SDS011;54410;48.694;8.934;2023-07-22T10:53:13;2.78;;;2.17;;
67595;SDS011;54410;48.694;8.934;2023-07-22T10:56:25;1.75;;;1.65;;
67595;SDS011;54410;48.694;8.934;2023-07-22T10:58:26;2.50;;;2.00;;
67595;SDS011;54410;48.694;8.934;2023-07-22T11:00:52;2.10;;;1.85;;
67595;SDS011;54410;48.694;8.934;2023-07-22T11:03:18;8.38;;;2.20;;
67595;SDS011;54410;48.694;8.934;2023-07-22T11:05:50;2.08;;;1.90;;
67595;SDS011;54410;48.694;8.934;2023-07-22T11:08:16;2.20;;;2.00;;
67595;SDS011;54410;48.694;8.934;2023-07-22T11:10:54;2.00;;;1.90;;
67595;SDS011;54410;48.694;8.934;2023-07-22T11:13:27;1.98;;;1.80;;
67595;SDS011;54410;48.694;8.934;2023-07-22T11:15:59;3.72;;;2.05;;
67595;SDS011;54410;48.694;8.934;2023-07-22T11:18:40;2.00;;;1.90;;
67595;SDS011;54410;48.694;8.934;2023-07-22T11:21:07;1.80;;;1.70;;
67595;SDS011;54410;48.694;8.934;2023-07-22T11:23:33;2.15;;;1.75;;
67595;SDS011;54410;48.694;8.934;2023-07-22T11:26:00;1.73;;;1.63;;
67595;SDS011;54410;48.694;8.934;2023-07-22T11:28:26;1.67;;;1.52;;
67595;SDS011;54410;48.694;8.934;2023-07-22T11:30:52;1.73;;;1.63;;
67595;SDS011;54410;48.694;8.934;2023-07-22T11:33:18;2.00;;;1.50;;
67595;SDS011;54410;48.694;8.934;2023-07-22T11:35:44;1.60;;;1.50;;
67595;SDS011;54410;48.694;8.934;2023-07-22T11:38:13;1.50;;;1.40;;
67595;SDS011;54410;48.694;8.934;2023-07-22T11:40:38;2.75;;;1.80;;
67595;SDS011;54410;48.694;8.934;2023-07-22T11:43:04;1.55;;;1.45;;
67595;SDS011;54410;48.694;8.934;2023-07-22T11:45:30;2.80;;;1.48;;
67595;SDS011;54410;48.694;8.934;2023-07-22T11:47:57;1.90;;;1.80;;
67595;SDS011;54410;48.694;8.934;2023-07-22T11:50:32;1.83;;;1.73;;
67595;SDS011;54410;48.694;8.934;2023-07-22T11:52:58;1.70;;;1.60;;
67595;SDS011;54410;48.694;8.934;2023-07-22T11:55:24;3.28;;;2.97;;
67595;SDS011;54410;48.694;8.934;2023-07-22T11:57:53;5.00;;;1.80;;
67595;SDS011;54410;48.694;8.934;2023-07-22T12:00:19;1.75;;;1.65;;
67595;SDS011;54410;48.694;8.934;2023-07-22T12:02:45;2.22;;;1.90;;
67595;SDS011;54410;48.694;8.934;2023-07-22T12:05:12;2.80;;;1.80;;
67595;SDS011;54410;48.694;8.934;2023-07-22T12:07:45;1.95;;;1.85;;
67595;SDS011;54410;48.694;8.934;2023-07-22T12:10:12;2.17;;;1.90;;
67595;SDS011;54410;48.694;8.934;2023-07-22T12:15:13;2.60;;;2.10;;
67595;SDS011;54410;48.694;8.934;2023-07-22T12:17:45;2.53;;;1.95;;
67595;SDS011;54410;48.694;8.934;2023-07-22T12:20:16;2.25;;;1.90;;
67595;SDS011;54410;48.694;8.934;2023-07-22T12:22:42;2.15;;;1.90;;
67595;SDS011;54410;48.694;8.934;2023-07-22T12:25:08;1.83;;;1.70;;
67595;SDS011;54410;48.694;8.934;2023-07-22T12:27:36;3.05;;;1.70;;
67595;SDS011;54410;48.694;8.934;2023-07-22T12:30:02;2.97;;;1.92;;
67595;SDS011;54410;48.694;8.934;2023-07-22T12:32:28;2.10;;;2.00;;
67595;SDS011;54410;48.694;8.934;2023-07-22T12:34:54;2.08;;;1.90;;
67595;SDS011;54410;48.694;8.934;2023-07-22T12:37:20;3.97;;;2.10;;
67595;SDS011;54410;48.694;8.934;2023-07-22T12:39:46;3.75;;;2.00;;
67595;SDS011;54410;48.694;8.934;2023-07-22T12:42:12;2.88;;;2.45;;
67595;SDS011;54410;48.694;8.934;2023-07-22T12:44:38;2.20;;;2.00;;
67595;SDS011;54410;48.694;8.934;2023-07-22T12:47:04;2.22;;;2.00;;
67595;SDS011;54410;48.694;8.934;2023-07-22T12:49:29;1.95;;;1.85;;
67595;SDS011;54410;48.694;8.934;2023-07-22T12:51:55;2.53;;;2.10;;
67595;SDS011;54410;48.694;8.934;2023-07-22T12:54:20;2.15;;;1.95;;
67595;SDS011;54410;48.694;8.934;2023-07-22T12:56:46;2.05;;;1.95;;
67595;SDS011;54410;48.694;8.934;2023-07-22T12:59:12;2.53;;;2.22;;
67595;SDS011;54410;48.694;8.934;2023-07-22T13:01:38;2.35;;;1.92;;
67595;SDS011;54410;48.694;8.934;2023-07-22T13:04:06;2.10;;;1.98;;
67595;SDS011;54410;48.694;8.934;2023-07-22T13:06:31;2.70;;;2.30;;
67595;SDS011;54410;48.694;8.934;2023-07-22T13:08:57;2.30;;;2.10;;
67595;SDS011;54410;48.694;8.934;2023-07-22T13:11:23;2.47;;;2.20;;
67595;SDS011;54410;48.694;8.934;2023-07-22T13:13:49;3.03;;;2.47;;
67595;SDS011;54410;48.694;8.934;2023-07-22T13:16:15;3.00;;;2.53;;
67595;SDS011;54410;48.694;8.934;2023-07-22T13:18:41;2.40;;;2.20;;
67595;SDS011;54410;48.694;8.934;2023-07-22T13:21:07;2.47;;;2.28;;
67595;SDS011;54410;48.694;8.934;2023-07-22T13:23:33;4.50;;;1.90;;
67595;SDS011;54410;48.694;8.934;2023-07-22T13:25:59;2.45;;;2.25;;
67595;SDS011;54410;48.694;8.934;2023-07-22T13:28:25;2.30;;;2.10;;
67595;SDS011;54410;48.694;8.934;2023-07-22T13:30:51;2.33;;;2.13;;
67595;SDS011;54410;48.694;8.934;2023-07-22T13:33:17;2.20;;;2.00;;
67595;SDS011;54410;48.694;8.934;2023-07-22T13:35:43;2.20;;;1.90;;
67595;SDS011;54410;48.694;8.934;2023-07-22T13:38:09;2.25;;;1.83;;
67595;SDS011;54410;48.694;8.934;2023-07-22T13:40:35;2.25;;;2.13;;
67595;SDS011;54410;48.694;8.934;2023-07-22T13:43:01;3.00;;;2.30;;
67595;SDS011;54410;48.694;8.934;2023-07-22T13:45:27;2.47;;;2.28;;
67595;SDS011;54410;48.694;8.934;2023-07-22T13:47:52;2.65;;;2.42;;
67595;SDS011;54410;48.694;8.934;2023-07-22T13:50:18;2.10;;;2.00;;
67595;SDS011;54410;48.694;8.934;2023-07-22T13:52:44;2.45;;;2.22;;
67595;SDS011;54410;48.694;8.934;2023-07-22T13:55:11;2.38;;;2.17;;
67595;SDS011;54410;48.694;8.934;2023-07-22T13:57:37;3.20;;;2.47;;
67595;SDS011;54410;48.694;8.934;2023-07-22T14:00:02;2.55;;;2.35;;
67595;SDS011;54410;48.694;8.934;2023-07-22T14:02:33;2.58;;;2.20;;
67595;SDS011;54410;48.694;8.934;2023-07-22T14:04:59;2.38;;;2.13;;
67595;SDS011;54410;48.694;8.934;2023-07-22T14:07:25;2.22;;;2.03;;
67595;SDS011;54410;48.694;8.934;2023-07-22T14:09:51;3.50;;;2.28;;
67595;SDS011;54410;48.694;8.934;2023-07-22T14:12:18;4.60;;;2.30;;
67595;SDS011;54410;48.694;8.934;2023-07-22T14:14:44;2.40;;;2.20;;
67595;SDS011;54410;48.694;8.934;2023-07-22T14:17:10;2.50;;;2.30;;
67595;SDS011;54410;48.694;8.934;2023-07-22T14:19:36;2.80;;;2.53;;
67595;SDS011;54410;48.694;8.934;2023-07-22T14:22:03;3.00;;;2.67;;
67595;SDS011;54410;48.694;8.934;2023-07-22T14:24:29;3.08;;;2.20;;
67595;SDS011;54410;48.694;8.934;2023-07-22T14:26:55;2.83;;;2.08;;
67595;SDS011;54410;48.694;8.934;2023-07-22T14:29:21;2.90;;;2.53;;
67595;SDS011;54410;48.694;8.934;2023-07-22T14:31:47;2.55;;;2.22;;
67595;SDS011;54410;48.694;8.934;2023-07-22T14:34:13;3.03;;;2.63;;
67595;SDS011;54410;48.694;8.934;2023-07-22T14:36:39;2.47;;;2.28;;
67595;SDS011;54410;48.694;8.934;2023-07-22T14:39:05;3.00;;;2.70;;
67595;SDS011;54410;48.694;8.934;2023-07-22T14:41:31;3.28;;;2.40;;
67595;SDS011;54410;48.694;8.934;2023-07-22T14:43:57;3.90;;;3.05;;
67595;SDS011;54410;48.694;8.934;2023-07-22T14:46:23;3.03;;;2.72;;
67595;SDS011;54410;48.694;8.934;2023-07-22T14:48:49;3.10;;;2.60;;
67595;SDS011;54410;48.694;8.934;2023-07-22T14:51:14;2.85;;;2.55;;
67595;SDS011;54410;48.694;8.934;2023-07-22T14:53:40;2.72;;;2.50;;
67595;SDS011;54410;48.694;8.934;2023-07-22T14:56:06;3.70;;;2.67;;